createdAt,value
2022-12-09T00:02:31.493Z,-1.20
2022-12-09T00:05:34.220Z,-1.33
2022-12-09T00:08:36.980Z,-1.26
2022-12-09T00:11:39.736Z,-1.23
2022-12-09T00:14:42.410Z,-1.21
2022-12-09T00:17:46.900Z,-1.21
2022-12-09T00:20:49.517Z,-1.23
2022-12-09T00:23:53.318Z,-1.23
2022-12-09T00:26:56.044Z,-1.26
2022-12-09T00:29:58.679Z,-1.22
2022-12-09T00:33:03.236Z,-1.31
2022-12-09T00:36:07.380Z,-1.35
2022-12-09T00:39:12.137Z,-1.36
2022-12-09T00:42:14.946Z,-1.32
2022-12-09T00:45:17.681Z,-1.30
2022-12-09T00:48:21.774Z,-1.36
2022-12-09T00:51:26.562Z,-1.27
2022-12-09T00:54:29.564Z,-1.25
2022-12-09T00:57:32.872Z,-1.30
2022-12-09T01:00:35.948Z,-1.27
2022-12-09T01:03:40.739Z,-1.45
2022-12-09T01:06:44.106Z,-1.55
2022-12-09T01:09:47.143Z,-1.61
2022-12-09T01:12:49.914Z,-1.49
2022-12-09T01:15:52.728Z,-1.47
2022-12-09T01:18:59.559Z,-1.51
2022-12-09T01:22:02.647Z,-1.48
2022-12-09T01:25:05.989Z,-1.55
2022-12-09T01:28:08.665Z,-1.60
2022-12-09T01:31:13.885Z,-1.61
2022-12-09T01:34:18.194Z,-1.64
2022-12-09T01:37:21.170Z,-1.70
2022-12-09T01:40:24.302Z,-1.68
2022-12-09T01:43:27.389Z,-1.66
2022-12-09T01:46:30.465Z,-1.67
2022-12-09T01:49:38.535Z,-1.55
2022-12-09T01:52:41.494Z,-1.58
2022-12-09T01:55:45.173Z,-1.72
2022-12-09T01:58:48.420Z,-1.87
2022-12-09T02:01:52.604Z,-1.86
2022-12-09T02:04:56.784Z,-1.87
2022-12-09T02:08:00.086Z,-1.83
2022-12-09T02:11:09.431Z,-1.80
2022-12-09T02:14:17.902Z,-1.92
2022-12-09T02:17:28.084Z,-2.01
2022-12-09T02:20:36.668Z,-2.02
2022-12-09T02:23:41.609Z,-2.03
2022-12-09T02:26:46.825Z,-2.01
2022-12-09T02:29:58.595Z,-2.04
2022-12-09T02:33:15.535Z,-2.01
2022-12-09T02:36:21.547Z,-2.04
2022-12-09T02:39:27.818Z,-2.01
2022-12-09T02:42:33.587Z,-2.06
2022-12-09T02:45:37.122Z,-2.07
2022-12-09T02:48:42.474Z,-2.04
2022-12-09T02:51:46.860Z,-1.99
2022-12-09T02:54:49.600Z,-2.09
2022-12-09T02:57:56.901Z,-2.15
2022-12-09T03:00:59.894Z,-2.15
2022-12-09T03:04:03.890Z,-2.14
2022-12-09T03:07:14.817Z,-2.18
2022-12-09T03:10:19.703Z,-2.10
2022-12-09T03:13:32.242Z,-2.09
2022-12-09T03:16:37.702Z,-2.27
2022-12-09T03:19:44.809Z,-2.35
2022-12-09T03:22:49.824Z,-2.30
2022-12-09T03:25:54.883Z,-2.20
2022-12-09T03:28:59.834Z,-2.10
2022-12-09T03:32:03.018Z,-2.11
2022-12-09T03:35:09.553Z,-2.10
2022-12-09T03:38:16.621Z,-2.08
2022-12-09T03:41:23.609Z,-2.07
2022-12-09T03:44:31.856Z,-2.10
2022-12-09T03:47:35.608Z,-2.04
2022-12-09T03:50:41.383Z,-2.05
2022-12-09T03:53:49.793Z,-2.10
2022-12-09T03:56:55.489Z,-2.09
2022-12-09T04:00:00.967Z,-2.02
2022-12-09T04:03:04.247Z,-1.99
2022-12-09T04:06:07.647Z,-2.05
2022-12-09T04:09:13.899Z,-2.07
2022-12-09T04:12:17.088Z,-2.00
2022-12-09T04:15:19.988Z,-1.96
2022-12-09T04:18:23.625Z,-1.91
2022-12-09T04:21:27.529Z,-1.86
2022-12-09T04:24:31.730Z,-1.77
2022-12-09T04:27:35.016Z,-1.85
2022-12-09T04:30:37.718Z,-1.84
2022-12-09T04:33:41.252Z,-1.78
2022-12-09T04:36:43.897Z,-1.85
2022-12-09T04:39:48.175Z,-1.93
2022-12-09T04:42:50.786Z,-2.02
2022-12-09T04:45:53.744Z,-2.08
2022-12-09T04:48:56.952Z,-2.13
2022-12-09T04:52:00.156Z,-2.09
2022-12-09T04:55:04.677Z,-1.93
2022-12-09T04:58:07.551Z,-1.83
2022-12-09T05:01:15.630Z,-1.78
2022-12-09T05:04:19.951Z,-1.82
2022-12-09T05:07:25.352Z,-1.75
2022-12-09T05:10:29.556Z,-1.63
2022-12-09T05:13:32.748Z,-1.71
2022-12-09T05:16:35.747Z,-1.67
2022-12-09T05:19:38.856Z,-1.60
2022-12-09T05:22:41.779Z,-1.60
2022-12-09T05:25:46.024Z,-1.59
2022-12-09T05:28:48.879Z,-1.54
2022-12-09T05:31:52.611Z,-1.52
2022-12-09T05:34:55.453Z,-1.49
2022-12-09T05:37:58.411Z,-1.43
2022-12-09T05:41:02.808Z,-1.40
2022-12-09T05:44:05.774Z,-1.43
2022-12-09T05:47:08.676Z,-1.42
2022-12-09T05:50:12.320Z,-1.44
2022-12-09T05:53:15.641Z,-1.49
2022-12-09T05:56:21.395Z,-1.53
2022-12-09T05:59:24.316Z,-1.57
2022-12-09T06:02:27.118Z,-1.51
2022-12-09T06:05:30.121Z,-1.33
2022-12-09T06:08:33.292Z,-1.31
2022-12-09T06:11:37.671Z,-1.16
2022-12-09T06:14:40.566Z,-1.10
2022-12-09T06:17:43.420Z,-1.05
2022-12-09T06:20:46.179Z,-1.11
2022-12-09T06:23:49.794Z,-1.11
2022-12-09T06:26:55.703Z,-1.13
2022-12-09T06:29:58.939Z,-1.12
2022-12-09T06:33:02.162Z,-1.07
2022-12-09T06:36:06.587Z,-1.03
2022-12-09T06:39:11.067Z,-1.03
2022-12-09T06:42:15.640Z,-1.00
2022-12-09T06:45:18.672Z,-0.97
2022-12-09T06:48:21.664Z,-0.92
2022-12-09T06:51:26.774Z,-0.83
2022-12-09T06:54:30.372Z,-0.77
2022-12-09T06:57:35.713Z,-0.75
2022-12-09T07:00:40.437Z,-0.74
2022-12-09T07:03:46.748Z,-0.63
2022-12-09T07:06:49.840Z,-0.51
2022-12-09T07:09:53.435Z,-0.34
2022-12-09T07:12:57.583Z,-0.25
2022-12-09T07:16:00.587Z,-0.16
2022-12-09T07:19:04.236Z,-0.01
2022-12-09T07:22:07.492Z,0.18
2022-12-09T07:25:11.196Z,0.37
2022-12-09T07:28:15.685Z,0.46
2022-12-09T07:31:21.280Z,0.46
2022-12-09T07:34:24.275Z,0.63
2022-12-09T07:37:27.650Z,0.71
2022-12-09T07:40:30.944Z,0.78
2022-12-09T07:43:36.100Z,0.83
2022-12-09T07:46:39.785Z,0.98
2022-12-09T07:49:42.918Z,1.07
2022-12-09T07:52:45.798Z,1.25
2022-12-09T07:55:49.004Z,1.40
2022-12-09T07:58:54.642Z,1.62
2022-12-09T08:02:04.194Z,1.77
2022-12-09T08:05:10.543Z,1.80
2022-12-09T08:08:13.949Z,2.06
2022-12-09T08:11:19.804Z,2.34
2022-12-09T08:14:23.986Z,2.40
2022-12-09T08:17:27.406Z,2.31
2022-12-09T08:20:30.966Z,2.60
2022-12-09T08:23:34.932Z,2.74
2022-12-09T08:26:39.437Z,2.91
2022-12-09T08:29:44.448Z,2.85
2022-12-09T08:32:48.514Z,2.75
2022-12-09T08:35:51.774Z,2.81
2022-12-09T08:38:55.417Z,2.83
2022-12-09T08:41:58.260Z,2.99
2022-12-09T08:45:03.256Z,3.07
2022-12-09T08:48:07.048Z,3.12
2022-12-09T08:51:11.383Z,3.34
2022-12-09T08:54:14.636Z,3.53
2022-12-09T08:57:17.938Z,3.59
2022-12-09T09:00:23.257Z,3.61
2022-12-09T09:03:27.320Z,3.51
2022-12-09T09:06:30.272Z,3.54
2022-12-09T09:09:33.447Z,3.31
2022-12-09T09:12:42.370Z,3.28
2022-12-09T09:15:48.078Z,3.17
2022-12-09T09:18:52.722Z,3.19
2022-12-09T09:21:56.234Z,3.41
2022-12-09T09:24:59.549Z,3.35
2022-12-09T09:28:02.933Z,3.45
2022-12-09T09:31:09.410Z,3.51
2022-12-09T09:34:13.195Z,3.42
2022-12-09T09:37:15.986Z,3.33
2022-12-09T09:40:19.774Z,3.54
2022-12-09T09:43:25.312Z,3.54
2022-12-09T09:46:36.368Z,3.65
2022-12-09T09:49:46.260Z,3.70
2022-12-09T09:52:51.279Z,3.92
2022-12-09T09:55:58.288Z,4.02
2022-12-09T09:59:10.432Z,3.86
2022-12-09T10:02:30.844Z,3.75
2022-12-09T10:05:36.129Z,3.64
2022-12-09T10:08:43.616Z,3.74
2022-12-09T10:11:56.557Z,3.68
2022-12-09T10:15:03.540Z,3.52
2022-12-09T10:18:12.987Z,3.64
2022-12-09T10:21:18.758Z,3.72
2022-12-09T10:24:25.031Z,3.69
2022-12-09T10:27:32.146Z,3.82
2022-12-09T10:30:43.685Z,4.04
2022-12-09T10:33:50.589Z,3.79
2022-12-09T10:36:53.836Z,3.92
2022-12-09T10:40:03.444Z,3.72
2022-12-09T10:43:38.864Z,3.73
2022-12-09T10:46:42.696Z,3.86
2022-12-09T10:49:47.524Z,4.04
2022-12-09T10:52:50.772Z,3.68
2022-12-09T10:55:54.923Z,3.71
2022-12-09T10:59:10.800Z,3.66
2022-12-09T11:02:21.084Z,3.60
2022-12-09T11:05:29.071Z,3.57
2022-12-09T11:08:33.268Z,3.41
2022-12-09T11:11:41.389Z,3.29
2022-12-09T11:14:51.752Z,3.63
2022-12-09T11:17:59.856Z,4.00
2022-12-09T11:21:06.261Z,3.99
2022-12-09T11:24:21.332Z,4.25
2022-12-09T11:27:28.079Z,4.17
2022-12-09T11:30:33.348Z,4.42
2022-12-09T11:33:37.585Z,4.29
2022-12-09T11:36:44.997Z,4.00
2022-12-09T11:39:50.651Z,4.47
2022-12-09T11:42:54.652Z,4.47
2022-12-09T11:45:57.299Z,4.56
2022-12-09T11:49:03.784Z,4.51
2022-12-09T11:52:24.058Z,5.02
2022-12-09T11:55:27.846Z,5.09
2022-12-09T11:58:34.946Z,4.74
2022-12-09T12:01:45.920Z,4.45
2022-12-09T12:04:56.861Z,4.37
2022-12-09T12:11:40.882Z,4.29
2022-12-09T12:14:45.268Z,4.26
2022-12-09T12:17:50.927Z,4.32
2022-12-09T12:21:15.872Z,4.40
2022-12-09T12:24:46.826Z,4.46
2022-12-09T12:28:01.436Z,4.41
2022-12-09T12:31:13.243Z,4.15
2022-12-09T12:34:27.209Z,4.00
2022-12-09T12:37:41.335Z,3.96
2022-12-09T12:40:48.226Z,4.14
2022-12-09T12:44:18.887Z,4.22
2022-12-09T12:47:24.978Z,4.02
2022-12-09T12:50:44.582Z,4.02
2022-12-09T12:53:52.475Z,4.03
2022-12-09T12:57:09.415Z,4.03
2022-12-09T13:00:16.269Z,3.80
2022-12-09T13:03:24.035Z,3.89
2022-12-09T13:06:40.853Z,4.02
2022-12-09T13:09:46.274Z,4.25
2022-12-09T13:12:56.783Z,4.04
2022-12-09T13:16:02.194Z,3.69
2022-12-09T13:19:13.401Z,3.94
2022-12-09T13:22:21.859Z,3.96
2022-12-09T13:25:28.407Z,4.00
2022-12-09T13:28:40.349Z,3.81
2022-12-09T13:31:49.431Z,3.67
2022-12-09T13:34:55.127Z,3.67
2022-12-09T13:38:01.816Z,3.83
2022-12-09T13:41:59.039Z,3.95
2022-12-09T13:45:07.624Z,4.00
2022-12-09T13:48:38.615Z,4.10
2022-12-09T13:51:45.927Z,4.08
2022-12-09T13:54:49.408Z,4.15
2022-12-09T13:57:55.285Z,4.18
2022-12-09T14:01:06.043Z,4.04
2022-12-09T14:04:15.056Z,3.90
2022-12-09T14:07:24.155Z,3.80
2022-12-09T14:10:38.383Z,3.75
2022-12-09T14:13:41.120Z,3.84
2022-12-09T14:16:45.511Z,3.71
2022-12-09T14:19:56.499Z,3.68
2022-12-09T14:23:13.516Z,3.65
2022-12-09T14:26:35.299Z,3.64
2022-12-09T14:29:54.351Z,3.63
2022-12-09T14:32:58.802Z,3.67
2022-12-09T14:36:05.307Z,3.54
2022-12-09T14:39:24.341Z,3.54
2022-12-09T14:42:36.284Z,3.61
2022-12-09T14:45:49.384Z,3.65
2022-12-09T14:48:57.192Z,3.58
2022-12-09T14:52:01.710Z,3.53
2022-12-09T14:55:08.401Z,3.50
2022-12-09T14:58:19.629Z,3.48
2022-12-09T15:01:22.468Z,3.32
2022-12-09T15:04:31.890Z,3.34
2022-12-09T15:07:35.787Z,3.35
2022-12-09T15:10:39.499Z,3.31
2022-12-09T15:13:44.303Z,3.25
2022-12-09T15:16:50.578Z,3.21
2022-12-09T15:20:02.313Z,3.11
2022-12-09T15:23:07.315Z,3.05
2022-12-09T15:26:20.466Z,3.02
2022-12-09T15:29:23.880Z,2.98
2022-12-09T15:32:29.520Z,3.01
2022-12-09T15:35:34.849Z,2.98
2022-12-09T15:38:42.336Z,2.95
2022-12-09T15:42:12.227Z,3.00
2022-12-09T15:45:17.279Z,3.05
2022-12-09T15:48:22.068Z,3.06
2022-12-09T15:51:27.146Z,3.19
2022-12-09T15:54:32.209Z,3.19
2022-12-09T15:57:36.264Z,3.24
2022-12-09T16:00:40.560Z,3.29
2022-12-09T16:03:43.358Z,3.36
2022-12-09T16:06:47.877Z,3.38
2022-12-09T16:10:07.962Z,3.22
2022-12-09T16:13:14.607Z,3.29
2022-12-09T16:16:25.655Z,3.28
2022-12-09T16:19:34.956Z,3.22
2022-12-09T16:22:39.588Z,3.24
2022-12-09T16:25:45.829Z,3.32
2022-12-09T16:28:55.678Z,3.41
2022-12-09T16:32:21.335Z,3.50
2022-12-09T16:35:27.115Z,3.53
2022-12-09T16:38:32.317Z,3.60
2022-12-09T16:41:56.700Z,3.60
2022-12-09T16:45:14.146Z,3.57
2022-12-09T16:48:17.844Z,3.55
2022-12-09T16:51:24.554Z,3.53
2022-12-09T16:54:28.674Z,3.52
2022-12-09T16:57:31.592Z,3.57
2022-12-09T17:00:34.159Z,3.66
2022-12-09T17:03:39.443Z,3.65
2022-12-09T17:06:42.396Z,3.62
2022-12-09T17:09:46.557Z,3.61
2022-12-09T17:12:49.986Z,3.61
2022-12-09T17:15:58.109Z,3.52
2022-12-09T17:19:01.199Z,3.48
2022-12-09T17:22:05.637Z,3.42
2022-12-09T17:25:10.723Z,3.36
2022-12-09T17:28:13.367Z,3.37
2022-12-09T17:31:18.355Z,3.38
2022-12-09T17:34:21.555Z,3.43
2022-12-09T17:37:24.384Z,3.50
2022-12-09T17:40:28.498Z,3.59
2022-12-09T17:43:31.585Z,3.55
2022-12-09T17:46:34.912Z,3.59
2022-12-09T17:49:38.093Z,3.62
2022-12-09T17:52:42.428Z,3.63
2022-12-09T17:55:46.371Z,3.66
2022-12-09T17:58:49.692Z,3.67
2022-12-09T18:01:52.314Z,3.65
2022-12-09T18:04:54.977Z,3.71
2022-12-09T18:07:57.778Z,3.68
2022-12-09T18:11:05.474Z,3.64
2022-12-09T18:14:09.885Z,3.49
2022-12-09T18:17:13.458Z,3.43
2022-12-09T18:20:16.443Z,3.42
2022-12-09T18:23:29.295Z,3.49
2022-12-09T18:26:38.303Z,3.57
2022-12-09T18:29:44.713Z,3.61
2022-12-09T18:32:47.405Z,3.64
2022-12-09T18:35:50.128Z,3.63
2022-12-09T18:38:53.863Z,3.66
2022-12-09T18:41:58.034Z,3.68
2022-12-09T18:45:00.663Z,3.70
2022-12-09T18:48:03.679Z,3.78
2022-12-09T18:51:08.646Z,3.76
2022-12-09T18:54:16.272Z,3.78
2022-12-09T18:57:20.220Z,3.77
2022-12-09T19:00:23.165Z,3.78
2022-12-09T19:03:25.762Z,3.75
2022-12-09T19:06:29.878Z,3.74
2022-12-09T19:09:34.947Z,3.84
2022-12-09T19:12:46.922Z,3.71
2022-12-09T19:15:50.115Z,3.67
2022-12-09T19:18:53.593Z,3.72
2022-12-09T19:21:56.353Z,3.69
2022-12-09T19:24:59.108Z,3.73
2022-12-09T19:28:03.156Z,3.75
2022-12-09T19:31:14.175Z,3.75
2022-12-09T19:34:18.498Z,3.75
2022-12-09T19:37:21.166Z,3.73
2022-12-09T19:40:23.978Z,3.73
2022-12-09T19:43:28.097Z,3.72
2022-12-09T19:46:30.849Z,3.64
2022-12-09T19:49:33.592Z,3.65
2022-12-09T19:52:36.869Z,3.65
2022-12-09T19:55:39.929Z,3.64
2022-12-09T19:58:45.057Z,3.66
2022-12-09T20:01:47.903Z,3.66
2022-12-09T20:04:51.381Z,3.67
2022-12-09T20:07:54.724Z,3.70
2022-12-09T20:10:57.357Z,3.76
2022-12-09T20:14:02.967Z,3.75
2022-12-09T20:17:05.796Z,3.72
2022-12-09T20:20:10.694Z,3.70
2022-12-09T20:23:13.688Z,3.72
2022-12-09T20:26:18.980Z,3.76
2022-12-09T20:29:23.166Z,3.72
2022-12-09T20:32:26.043Z,3.73
2022-12-09T20:35:28.729Z,3.74
2022-12-09T20:38:31.897Z,3.77
2022-12-09T20:41:34.840Z,3.79
2022-12-09T20:44:38.971Z,3.82
2022-12-09T20:47:42.170Z,3.76
2022-12-09T20:50:45.037Z,3.79
2022-12-09T20:53:48.754Z,3.79
2022-12-09T20:56:51.467Z,3.82
2022-12-09T20:59:55.580Z,3.79
2022-12-09T21:02:58.333Z,3.80
2022-12-09T21:06:00.963Z,3.69
2022-12-09T21:09:05.284Z,3.75
2022-12-09T21:12:08.130Z,3.70
2022-12-09T21:15:12.823Z,3.75
2022-12-09T21:18:15.557Z,3.80
2022-12-09T21:21:19.103Z,3.82
2022-12-09T21:24:24.418Z,3.80
2022-12-09T21:27:27.529Z,3.81
2022-12-09T21:30:31.500Z,3.83
2022-12-09T21:33:34.653Z,3.84
2022-12-09T21:36:39.612Z,3.86
2022-12-09T21:39:42.476Z,3.86
2022-12-09T21:42:45.785Z,3.78
2022-12-09T21:45:50.662Z,3.79
2022-12-09T21:48:59.945Z,3.79
2022-12-09T21:52:07.273Z,3.87
2022-12-09T21:55:11.859Z,3.87
2022-12-09T21:58:15.072Z,3.89
2022-12-09T22:01:21.504Z,3.89
2022-12-09T22:04:24.119Z,3.75
2022-12-09T22:07:26.729Z,3.68
2022-12-09T22:10:30.370Z,3.66
2022-12-09T22:13:39.010Z,3.68
2022-12-09T22:16:45.765Z,3.65
2022-12-09T22:20:06.281Z,3.64
2022-12-09T22:23:12.777Z,3.66
2022-12-09T22:26:16.720Z,3.62
2022-12-09T22:29:19.527Z,3.61
2022-12-09T22:32:23.682Z,3.66
2022-12-09T22:35:26.688Z,3.68
2022-12-09T22:38:29.350Z,3.54
2022-12-09T22:41:33.912Z,3.53
2022-12-09T22:44:36.506Z,3.49
2022-12-09T22:47:40.537Z,3.57
2022-12-09T22:50:43.176Z,3.56
2022-12-09T22:53:46.403Z,3.62
2022-12-09T22:56:49.126Z,3.60
2022-12-09T22:59:51.754Z,3.50
2022-12-09T23:02:56.041Z,3.58
2022-12-09T23:06:02.316Z,3.62
2022-12-09T23:09:05.822Z,3.63
2022-12-09T23:12:08.989Z,3.49
2022-12-09T23:15:12.373Z,3.56
2022-12-09T23:18:16.415Z,3.58
2022-12-09T23:21:22.483Z,3.54
2022-12-09T23:24:25.279Z,3.53
2022-12-09T23:27:28.162Z,3.52
2022-12-09T23:30:30.977Z,3.51
2022-12-09T23:33:36.314Z,3.52
2022-12-09T23:36:41.227Z,3.56
2022-12-09T23:39:44.164Z,3.62
2022-12-09T23:42:46.781Z,3.64
2022-12-09T23:45:49.404Z,3.66
2022-12-09T23:48:54.698Z,3.65
2022-12-09T23:51:57.345Z,3.59
2022-12-09T23:55:04.354Z,3.62
2022-12-09T23:58:07.266Z,3.61
